createdAt,value
2023-01-20T00:03:53.926Z,45.20
2023-01-20T00:06:21.882Z,52.93
2023-01-20T00:08:51.577Z,53.17
2023-01-20T00:11:21.024Z,50.30
2023-01-20T00:16:57.266Z,57.33
2023-01-20T00:22:27.505Z,54.20
2023-01-20T00:24:54.934Z,57.17
2023-01-20T00:27:23.682Z,51.03
2023-01-20T00:29:52.103Z,56.50
2023-01-20T00:35:22.578Z,51.17
2023-01-20T00:37:50.055Z,41.30
2023-01-20T00:40:17.964Z,46.50
2023-01-20T00:42:46.722Z,43.77
2023-01-20T00:48:16.060Z,45.37
2023-01-20T00:50:43.644Z,44.00
2023-01-20T00:53:11.163Z,48.50
2023-01-20T00:55:38.569Z,45.80
2023-01-20T01:00:56.128Z,37.37
2023-01-20T01:03:23.746Z,40.93
2023-01-20T01:05:51.241Z,48.63
2023-01-20T01:08:18.633Z,37.57
2023-01-20T01:13:38.387Z,39.20
2023-01-20T01:19:05.598Z,38.33
2023-01-20T01:21:33.121Z,35.93
2023-01-20T01:24:00.549Z,35.90
2023-01-20T01:26:28.117Z,42.20
2023-01-20T01:31:56.899Z,45.23
2023-01-20T01:34:24.583Z,44.20
2023-01-20T01:36:52.012Z,43.00
2023-01-20T01:39:19.462Z,45.83
2023-01-20T01:44:37.329Z,48.73
2023-01-20T01:47:06.399Z,44.77
2023-01-20T01:49:34.116Z,50.67
2023-01-20T01:52:03.506Z,43.67
2023-01-20T01:57:20.198Z,53.10
2023-01-20T01:59:47.722Z,47.37
2023-01-20T02:02:17.239Z,44.63
2023-01-20T02:04:50.993Z,55.57
2023-01-20T02:10:18.126Z,44.47
2023-01-20T02:12:49.448Z,44.37
2023-01-20T02:15:17.587Z,47.67
2023-01-20T02:17:55.020Z,54.30
2023-01-20T02:23:31.461Z,47.20
2023-01-20T02:29:34.162Z,45.40
2023-01-20T02:35:12.945Z,43.37
2023-01-20T02:37:48.056Z,44.87
2023-01-20T02:40:25.263Z,46.20
2023-01-20T02:43:00.831Z,54.47
2023-01-20T02:48:29.663Z,45.37
2023-01-20T02:51:02.266Z,47.33
2023-01-20T02:53:38.285Z,43.10
2023-01-20T02:56:06.108Z,42.60
2023-01-20T03:01:43.239Z,48.73
2023-01-20T03:07:16.246Z,46.00
2023-01-20T03:09:48.019Z,41.60
2023-01-20T03:12:18.688Z,42.87
2023-01-20T03:14:46.200Z,42.23
2023-01-20T03:20:13.243Z,41.40
2023-01-20T03:22:42.071Z,42.97
2023-01-20T03:25:10.773Z,43.13
2023-01-20T03:27:38.432Z,38.67
2023-01-20T03:32:54.538Z,38.33
2023-01-20T03:35:22.106Z,41.30
2023-01-20T03:37:51.303Z,37.07
2023-01-20T03:40:19.036Z,41.13
2023-01-20T03:45:47.487Z,37.03
2023-01-20T03:51:15.077Z,39.40
2023-01-20T03:53:46.872Z,34.70
2023-01-20T03:56:18.246Z,40.40
2023-01-20T03:58:48.614Z,39.63
2023-01-20T04:04:20.393Z,43.43
2023-01-20T04:06:49.190Z,37.73
2023-01-20T04:09:21.363Z,36.50
2023-01-20T04:11:48.792Z,39.43
2023-01-20T04:17:18.535Z,39.70
2023-01-20T04:19:45.976Z,42.13
2023-01-20T04:22:16.880Z,44.63
2023-01-20T04:24:50.642Z,43.10
2023-01-20T04:30:22.192Z,40.77
2023-01-20T04:35:52.518Z,37.93
2023-01-20T04:38:20.067Z,43.70
2023-01-20T04:40:50.193Z,44.20
2023-01-20T04:43:18.524Z,43.33
2023-01-20T04:48:48.613Z,42.37
2023-01-20T04:51:16.108Z,37.20
2023-01-20T04:53:43.546Z,38.53
2023-01-20T04:56:16.274Z,36.40
2023-01-20T05:01:32.789Z,38.73
2023-01-20T05:04:00.270Z,36.27
2023-01-20T05:06:27.688Z,40.80
2023-01-20T05:08:55.117Z,37.70
2023-01-20T05:14:13.268Z,34.50
2023-01-20T05:16:40.807Z,41.67
2023-01-20T05:19:08.261Z,35.87
2023-01-20T05:21:35.689Z,33.67
2023-01-20T05:27:01.641Z,35.57
2023-01-20T05:29:30.414Z,38.70
2023-01-20T05:31:57.861Z,35.20
2023-01-20T05:34:25.440Z,37.03
2023-01-20T05:39:41.510Z,33.83
2023-01-20T05:42:08.929Z,37.50
2023-01-20T05:44:37.720Z,33.57
2023-01-20T05:47:05.317Z,44.37
2023-01-20T05:52:29.013Z,43.90
2023-01-20T05:54:56.437Z,43.13
2023-01-20T05:57:25.141Z,33.37
2023-01-20T05:59:55.519Z,38.60
2023-01-20T06:05:30.389Z,36.73
2023-01-20T06:11:00.752Z,49.47
2023-01-20T06:13:28.246Z,44.47
2023-01-20T06:18:48.476Z,42.37
2023-01-20T06:24:11.092Z,40.97
2023-01-20T06:26:38.492Z,38.83
2023-01-20T06:29:05.963Z,35.13
2023-01-20T06:31:33.437Z,37.77
2023-01-20T06:36:50.954Z,40.20
2023-01-20T06:39:18.375Z,34.70
2023-01-20T06:41:46.310Z,38.13
2023-01-20T06:44:13.873Z,46.30
2023-01-20T06:49:29.978Z,39.23
2023-01-20T06:51:58.729Z,44.40
2023-01-20T06:54:27.056Z,38.07
2023-01-20T06:56:54.508Z,44.37
2023-01-20T07:02:10.944Z,39.63
2023-01-20T07:04:38.493Z,37.30
2023-01-20T07:07:07.259Z,40.07
2023-01-20T07:09:34.682Z,36.30
2023-01-20T07:14:55.151Z,40.80
2023-01-20T07:20:21.550Z,40.37
2023-01-20T07:22:50.486Z,41.23
2023-01-20T07:25:17.911Z,43.60
2023-01-20T07:27:45.345Z,35.77
2023-01-20T07:33:05.442Z,42.90
2023-01-20T07:35:32.985Z,41.33
2023-01-20T07:38:01.771Z,41.47
2023-01-20T07:40:29.167Z,45.23
2023-01-20T07:45:45.622Z,37.20
2023-01-20T07:48:13.043Z,42.10
2023-01-20T07:50:40.469Z,40.63
2023-01-20T07:53:09.255Z,38.73
2023-01-20T07:58:39.665Z,41.70
2023-01-20T08:01:08.914Z,41.77
2023-01-20T08:03:36.474Z,41.30
2023-01-20T08:06:04.454Z,40.37
2023-01-20T08:11:35.889Z,41.63
2023-01-20T08:14:03.339Z,45.40
2023-01-20T08:16:30.784Z,46.20
2023-01-20T08:18:58.502Z,39.87
2023-01-20T08:24:28.573Z,36.83
2023-01-20T08:26:57.356Z,36.53
2023-01-20T08:29:24.818Z,39.57
2023-01-20T08:31:52.361Z,35.90
2023-01-20T08:37:17.618Z,33.50
2023-01-20T08:39:45.032Z,34.97
2023-01-20T08:42:13.844Z,34.87
2023-01-20T08:44:41.321Z,31.00
2023-01-20T08:50:00.122Z,31.57
2023-01-20T08:55:27.538Z,31.27
2023-01-20T08:57:56.320Z,29.77
2023-01-20T09:00:24.514Z,31.73
2023-01-20T09:02:52.033Z,28.00
2023-01-20T09:08:19.701Z,28.50
2023-01-20T09:10:47.562Z,36.87
2023-01-20T09:13:16.335Z,26.83
2023-01-20T09:15:43.827Z,29.37
2023-01-20T09:21:13.587Z,30.47
2023-01-20T09:23:42.679Z,30.37
2023-01-20T09:26:10.603Z,30.00
2023-01-20T09:28:39.327Z,29.60
2023-01-20T09:34:09.575Z,25.87
2023-01-20T09:36:37.021Z,31.97
2023-01-20T09:39:22.314Z,30.10
2023-01-20T09:42:08.027Z,27.77
2023-01-20T09:44:45.817Z,29.90
2023-01-20T09:47:28.596Z,28.10
2023-01-20T09:53:06.487Z,26.63
2023-01-20T09:55:41.138Z,25.03
2023-01-20T09:58:14.971Z,26.13
2023-01-20T10:00:47.809Z,32.03
2023-01-20T10:06:02.897Z,25.40
2023-01-20T10:11:32.204Z,28.33
2023-01-20T10:14:05.251Z,28.10
2023-01-20T10:16:38.842Z,32.63
2023-01-20T10:19:11.328Z,27.57
2023-01-20T10:24:44.978Z,30.07
2023-01-20T10:27:12.463Z,27.93
2023-01-20T10:29:42.327Z,24.90
2023-01-20T10:32:17.065Z,26.43
2023-01-20T10:37:44.109Z,24.43
2023-01-20T10:43:14.295Z,21.00
2023-01-20T10:45:53.440Z,22.67
2023-01-20T10:48:30.300Z,24.07
2023-01-20T10:50:59.911Z,20.73
2023-01-20T10:56:34.587Z,17.80
2023-01-20T10:59:05.180Z,21.93
2023-01-20T11:01:32.708Z,21.07
2023-01-20T11:04:01.484Z,20.60
2023-01-20T11:09:32.626Z,22.17
2023-01-20T11:15:18.855Z,20.13
2023-01-20T11:17:47.449Z,18.33
2023-01-20T11:20:21.200Z,22.40
2023-01-20T11:22:50.181Z,20.37
2023-01-20T11:28:18.680Z,19.97
2023-01-20T11:30:51.978Z,20.47
2023-01-20T11:33:22.078Z,19.27
2023-01-20T11:36:01.592Z,23.40
2023-01-20T11:41:06.387Z,19.33
2023-01-20T11:46:37.198Z,19.37
2023-01-20T11:49:15.751Z,17.60
2023-01-20T11:51:51.464Z,22.23
2023-01-20T11:54:21.109Z,22.97
2023-01-20T11:59:49.465Z,17.47
2023-01-20T12:02:24.430Z,21.00
2023-01-20T12:05:04.250Z,22.10
2023-01-20T12:07:36.262Z,18.57
2023-01-20T12:12:50.765Z,24.73
2023-01-20T12:18:20.105Z,21.97
2023-01-20T12:20:55.700Z,19.63
2023-01-20T12:23:35.284Z,20.73
2023-01-20T12:26:04.491Z,19.70
2023-01-20T12:31:23.794Z,21.03
2023-01-20T12:33:52.664Z,24.70
2023-01-20T12:36:35.960Z,23.60
2023-01-20T12:39:21.573Z,17.23
2023-01-20T12:44:33.223Z,18.30
2023-01-20T12:50:19.663Z,27.30
2023-01-20T12:52:55.845Z,22.07
2023-01-20T12:55:31.944Z,18.90
2023-01-20T12:58:04.933Z,20.13
2023-01-20T13:03:53.773Z,20.80
2023-01-20T13:09:42.000Z,17.43
2023-01-20T13:15:23.236Z,17.50
2023-01-20T13:18:08.485Z,21.03
2023-01-20T13:20:40.471Z,18.00
2023-01-20T13:23:10.776Z,17.93
2023-01-20T13:28:56.600Z,17.23
2023-01-20T13:34:36.533Z,19.83
2023-01-20T13:37:24.719Z,16.27
2023-01-20T13:39:54.266Z,20.03
2023-01-20T13:42:29.955Z,20.17
2023-01-20T13:47:53.380Z,16.93
2023-01-20T13:53:29.247Z,19.13
2023-01-20T13:56:25.554Z,15.87
2023-01-20T13:58:53.230Z,19.27
2023-01-20T14:01:20.704Z,20.80
2023-01-20T14:06:45.994Z,16.43
2023-01-20T14:09:20.198Z,16.33
2023-01-20T14:11:50.419Z,16.53
2023-01-20T14:14:20.261Z,18.17
2023-01-20T14:17:08.251Z,18.07
2023-01-20T14:19:36.185Z,18.20
2023-01-20T14:25:03.456Z,19.83
2023-01-20T14:27:33.495Z,17.00
2023-01-20T14:30:16.067Z,17.53
2023-01-20T14:32:43.779Z,19.10
2023-01-20T14:38:19.004Z,16.10
2023-01-20T14:40:49.949Z,17.37
2023-01-20T14:43:19.417Z,18.53
2023-01-20T14:45:49.411Z,15.17
2023-01-20T14:51:15.422Z,15.07
2023-01-20T14:56:48.498Z,25.47
2023-01-20T14:59:19.824Z,28.40
2023-01-20T15:01:52.279Z,17.27
2023-01-20T15:04:19.936Z,20.77
2023-01-20T15:09:36.886Z,19.90
2023-01-20T15:12:42.451Z,18.37
2023-01-20T15:15:28.685Z,18.73
2023-01-20T15:18:16.758Z,20.20
2023-01-20T15:20:46.421Z,20.07
2023-01-20T15:23:22.871Z,20.40
2023-01-20T15:28:49.920Z,22.10
2023-01-20T15:31:18.104Z,19.87
2023-01-20T15:33:45.700Z,20.63
2023-01-20T15:36:21.710Z,18.03
2023-01-20T15:41:57.478Z,22.60
2023-01-20T15:47:30.836Z,21.13
2023-01-20T15:49:58.396Z,20.53
2023-01-20T15:52:25.930Z,21.77
2023-01-20T15:54:53.348Z,23.90
2023-01-20T16:00:18.578Z,26.50
2023-01-20T16:02:46.260Z,20.37
2023-01-20T16:05:17.189Z,21.73
2023-01-20T16:07:46.890Z,23.57
2023-01-20T16:13:16.890Z,23.23
2023-01-20T16:15:45.640Z,20.57
2023-01-20T16:18:15.301Z,27.80
2023-01-20T16:20:43.877Z,23.03
2023-01-20T16:26:20.003Z,24.87
2023-01-20T16:28:47.465Z,29.40
2023-01-20T16:31:16.318Z,24.07
2023-01-20T16:33:44.234Z,27.30
2023-01-20T16:39:01.595Z,29.73
2023-01-20T16:44:29.580Z,24.97
2023-01-20T16:47:00.054Z,24.10
2023-01-20T16:49:27.481Z,25.77
2023-01-20T16:51:54.899Z,24.77
2023-01-20T16:57:11.334Z,26.97
2023-01-20T16:59:38.773Z,24.13
2023-01-20T17:02:07.565Z,26.93
2023-01-20T17:04:35.385Z,26.73
2023-01-20T17:10:06.186Z,25.83
2023-01-20T17:12:33.583Z,22.63
2023-01-20T17:15:01.046Z,23.33
2023-01-20T17:17:29.829Z,24.90
2023-01-20T17:22:59.570Z,25.70
2023-01-20T17:25:26.995Z,28.70
2023-01-20T17:27:54.453Z,27.20
2023-01-20T17:30:24.527Z,29.77
2023-01-20T17:35:57.405Z,29.27
2023-01-20T17:38:24.931Z,26.17
2023-01-20T17:40:52.447Z,25.30
2023-01-20T17:43:20.009Z,28.00
2023-01-20T17:48:45.418Z,28.97
2023-01-20T17:54:12.548Z,29.13
2023-01-20T17:56:40.004Z,27.00
2023-01-20T17:59:07.429Z,31.33
2023-01-20T18:01:34.949Z,30.27
2023-01-20T18:06:54.919Z,34.87
2023-01-20T18:09:22.373Z,33.90
2023-01-20T18:11:49.800Z,32.43
2023-01-20T18:14:17.313Z,31.33
2023-01-20T18:19:35.494Z,32.77
2023-01-20T18:22:06.864Z,36.47
2023-01-20T18:24:34.362Z,34.40
2023-01-20T18:27:01.840Z,34.37
2023-01-20T18:32:31.605Z,37.07
2023-01-20T18:34:59.006Z,37.67
2023-01-20T18:39:56.672Z,33.90
2023-01-20T18:45:12.568Z,37.47
2023-01-20T18:47:39.969Z,34.80
2023-01-20T18:50:08.009Z,37.20
2023-01-20T18:52:36.779Z,35.70
2023-01-20T18:58:08.432Z,38.13
2023-01-20T19:00:36.094Z,42.73
2023-01-20T19:03:03.735Z,35.00
2023-01-20T19:05:32.396Z,38.73
2023-01-20T19:11:05.526Z,39.53
2023-01-20T19:13:33.481Z,40.50
2023-01-20T19:16:01.028Z,35.37
2023-01-20T19:18:28.748Z,37.50
2023-01-20T19:23:49.481Z,36.97
2023-01-20T19:29:19.032Z,39.40
2023-01-20T19:31:46.576Z,45.37
2023-01-20T19:34:14.093Z,45.23
2023-01-20T19:36:42.797Z,36.40
2023-01-20T19:42:10.826Z,41.77
2023-01-20T19:44:38.250Z,47.30
2023-01-20T19:47:05.771Z,47.50
2023-01-20T19:49:33.287Z,42.27
2023-01-20T19:55:03.523Z,41.43
2023-01-20T19:57:32.285Z,44.70
2023-01-20T19:59:59.698Z,41.50
2023-01-20T20:02:28.097Z,37.20
2023-01-20T20:07:44.521Z,43.10
2023-01-20T20:10:12.059Z,47.33
2023-01-20T20:12:41.261Z,44.63
2023-01-20T20:15:10.798Z,42.43
2023-01-20T20:20:36.738Z,37.47
2023-01-20T20:23:04.148Z,42.43
2023-01-20T20:25:31.690Z,38.40
2023-01-20T20:27:59.152Z,46.37
2023-01-20T20:33:17.566Z,43.27
2023-01-20T20:35:45.082Z,40.93
2023-01-20T20:38:12.541Z,41.53
2023-01-20T20:40:39.980Z,43.47
2023-01-20T20:46:07.389Z,43.73
2023-01-20T20:48:37.379Z,44.90
2023-01-20T20:51:08.974Z,41.73
2023-01-20T20:53:36.588Z,50.13
2023-01-20T20:59:01.835Z,45.27
2023-01-20T21:04:43.922Z,41.93
2023-01-20T21:07:11.886Z,41.23
2023-01-20T21:09:40.518Z,42.30
2023-01-20T21:12:08.481Z,45.57
2023-01-20T21:17:34.524Z,44.47
2023-01-20T21:20:03.760Z,35.27
2023-01-20T21:22:31.256Z,41.73
2023-01-20T21:24:58.702Z,43.87
2023-01-20T21:30:28.528Z,38.40
2023-01-20T21:32:56.019Z,39.27
2023-01-20T21:35:24.874Z,38.83
2023-01-20T21:37:52.262Z,40.77
2023-01-20T21:43:32.399Z,40.47
2023-01-20T21:49:16.136Z,38.97
2023-01-20T21:52:02.683Z,35.70
2023-01-20T21:54:31.853Z,36.77
2023-01-20T21:56:59.826Z,35.47
2023-01-20T22:02:18.072Z,35.77
2023-01-20T22:07:48.256Z,39.30
2023-01-20T22:10:16.082Z,37.37
2023-01-20T22:12:43.624Z,33.50
2023-01-20T22:15:11.825Z,37.47
2023-01-20T22:20:29.295Z,39.17
2023-01-20T22:22:58.027Z,40.20
2023-01-20T22:25:25.421Z,37.50
2023-01-20T22:27:52.810Z,39.27
2023-01-20T22:33:08.576Z,39.03
2023-01-20T22:35:36.007Z,37.67
2023-01-20T22:38:04.873Z,33.13
2023-01-20T22:40:34.184Z,34.20
2023-01-20T22:48:33.353Z,38.20
2023-01-20T22:51:03.298Z,33.00
2023-01-20T22:53:32.407Z,38.03
2023-01-20T22:58:59.331Z,36.50
2023-01-20T23:01:28.696Z,36.93
2023-01-20T23:03:57.211Z,37.10
2023-01-20T23:06:25.499Z,41.60
2023-01-20T23:11:52.895Z,29.87
2023-01-20T23:17:30.083Z,38.83
2023-01-20T23:19:58.364Z,36.87
2023-01-20T23:22:25.827Z,30.30
2023-01-20T23:24:53.261Z,38.53
2023-01-20T23:30:12.073Z,35.47
2023-01-20T23:32:39.598Z,33.93
2023-01-20T23:35:07.535Z,33.53
2023-01-20T23:37:34.969Z,38.83
2023-01-20T23:43:00.523Z,31.97
2023-01-20T23:45:29.406Z,38.20
2023-01-20T23:47:57.029Z,38.13
2023-01-20T23:50:24.461Z,33.07
2023-01-20T23:55:50.490Z,40.83
2023-01-20T23:58:17.970Z,40.57
